Time;durP1;ratioP1;P1;durP2;ratioP2;P2;SDS_P1;SDS_P2;PMS_P1;PMS_P2;Temp;Humidity;BMP_temperature;BMP_pressure;BME280_temperature;BME280_humidity;BME280_pressure;Samples;Min_cycle;Max_cycle;Signal;HPM_P1;HPM_P2
2022/04/07 00:01:14;;;;;;;3.30;2.57;;;9.30;99.90;;;;;;5055197;28;20178;-44
2022/04/07 00:03:39;;;;;;;2.23;2.03;;;9.30;99.90;;;;;;5054851;28;20182;-43
2022/04/07 00:06:09;;;;;;;2.47;2.27;;;9.30;99.90;;;;;;5054360;28;20665;-44
2022/04/07 00:08:41;;;;;;;2.30;2.10;;;9.20;99.90;;;;;;5054044;28;20178;-44
2022/04/07 00:11:07;;;;;;;2.30;2.10;;;9.20;99.90;;;;;;5053475;28;20433;-44
2022/04/07 00:13:33;;;;;;;2.00;1.80;;;9.20;99.90;;;;;;5054734;28;20692;-44
2022/04/07 00:16:00;;;;;;;2.80;2.30;;;9.00;99.90;;;;;;5054211;28;20421;-44
2022/04/07 00:18:26;;;;;;;2.30;1.90;;;9.10;99.90;;;;;;5053319;28;20217;-43
2022/04/07 00:20:54;;;;;;;2.17;1.97;;;9.10;99.90;;;;;;5054684;28;20674;-44
2022/04/07 00:23:21;;;;;;;2.03;1.83;;;9.10;99.90;;;;;;5054429;28;20868;-44
2022/04/07 00:25:46;;;;;;;2.23;1.90;;;9.10;99.90;;;;;;5054566;28;20912;-42
2022/04/07 00:28:12;;;;;;;1.83;1.63;;;9.10;99.90;;;;;;5054333;28;20502;-43
2022/04/07 00:30:40;;;;;;;2.00;1.80;;;9.00;99.90;;;;;;5054517;28;20217;-44
2022/04/07 00:33:07;;;;;;;2.77;1.93;;;9.00;99.90;;;;;;5054151;28;20646;-43
2022/04/07 00:35:33;;;;;;;2.73;2.07;;;9.00;99.90;;;;;;5054833;28;20185;-43
2022/04/07 00:37:59;;;;;;;2.63;2.23;;;9.00;99.90;;;;;;5053788;28;20464;-44
2022/04/07 00:40:25;;;;;;;2.33;2.13;;;9.00;99.90;;;;;;5054793;28;20440;-44
2022/04/07 00:42:52;;;;;;;2.67;1.93;;;9.00;99.90;;;;;;5055568;28;20431;-44
2022/04/07 00:45:21;;;;;;;2.70;2.10;;;8.90;99.90;;;;;;5054578;28;20436;-44
2022/04/07 00:47:47;;;;;;;2.37;2.13;;;8.90;99.90;;;;;;5055178;28;20481;-43
2022/04/07 00:50:15;;;;;;;3.40;2.10;;;8.90;99.90;;;;;;5053831;28;20416;-44
2022/04/07 00:52:43;;;;;;;2.83;2.00;;;8.90;99.90;;;;;;5054051;28;20428;-44
2022/04/07 00:55:12;;;;;;;2.60;1.90;;;8.90;99.90;;;;;;5054752;28;20687;-44
2022/04/07 00:57:39;;;;;;;2.30;2.10;;;8.80;99.90;;;;;;5054535;28;20503;-44
2022/04/07 01:00:08;;;;;;;2.23;2.00;;;8.90;99.90;;;;;;5055273;28;20424;-43
2022/04/07 01:02:35;;;;;;;3.47;2.27;;;8.90;99.90;;;;;;5054837;28;20709;-43
2022/04/07 01:05:01;;;;;;;2.50;2.00;;;8.90;99.90;;;;;;5053910;28;20497;-44
2022/04/07 01:07:27;;;;;;;1.70;1.60;;;8.90;99.90;;;;;;5054238;28;20745;-44
2022/04/07 01:09:52;;;;;;;2.77;2.20;;;8.90;99.90;;;;;;5054288;28;20906;-43
2022/04/07 01:12:18;;;;;;;2.90;2.20;;;8.80;99.90;;;;;;5056528;28;20580;-44
2022/04/07 01:15:01;;;;;;;2.53;2.03;;;8.80;99.90;;;;;;5058591;28;20182;-44
2022/04/07 01:17:27;;;;;;;4.00;2.93;;;8.80;99.90;;;;;;5058146;28;20216;-44
2022/04/07 01:19:53;;;;;;;2.03;1.83;;;8.70;99.90;;;;;;5057920;28;20424;-44
2022/04/07 01:22:22;;;;;;;3.90;2.20;;;8.70;99.90;;;;;;5057886;28;20788;-44
2022/04/07 01:24:48;;;;;;;1.50;1.40;;;8.70;99.90;;;;;;5057907;28;20822;-43
2022/04/07 01:27:15;;;;;;;4.20;2.10;;;8.70;99.90;;;;;;5057047;28;20429;-43
2022/04/07 01:29:41;;;;;;;3.43;1.97;;;8.70;99.90;;;;;;5057167;28;20250;-43
2022/04/07 01:35:13;;;;;;;2.10;1.77;;;8.70;99.90;;;;;;4990807;28;20649;-43
2022/04/07 01:37:41;;;;;;;1.50;1.20;;;8.70;99.90;;;;;;5057303;28;20894;-44
2022/04/07 01:40:13;;;;;;;2.00;1.83;;;8.60;99.90;;;;;;5057961;28;20516;-44
2022/04/07 01:42:39;;;;;;;1.80;1.50;;;8.60;99.90;;;;;;5057613;28;20759;-43
2022/04/07 01:45:06;;;;;;;1.30;1.20;;;8.60;99.90;;;;;;5057568;28;20420;-44
2022/04/07 01:47:33;;;;;;;2.27;1.50;;;8.50;99.90;;;;;;5057889;28;20595;-44
2022/04/07 01:50:03;;;;;;;2.13;1.40;;;8.60;99.90;;;;;;5057161;28;20416;-44
2022/04/07 01:52:29;;;;;;;2.20;1.83;;;8.60;99.90;;;;;;5058322;28;20429;-44
2022/04/07 01:54:55;;;;;;;1.83;1.63;;;8.60;99.90;;;;;;5058054;28;20429;-44
2022/04/07 01:57:23;;;;;;;1.40;1.20;;;8.70;99.90;;;;;;5056021;28;20432;-43
2022/04/07 01:59:52;;;;;;;1.40;1.30;;;8.60;99.90;;;;;;5057514;28;20424;-44
2022/04/07 02:02:19;;;;;;;1.40;1.20;;;8.60;99.90;;;;;;5057302;28;20420;-43
2022/04/07 02:05:11;;;;;;;2.20;1.73;;;8.60;99.90;;;;;;5058366;28;20420;-44
2022/04/07 02:07:39;;;;;;;2.60;1.53;;;8.60;99.90;;;;;;5052439;28;20445;-44
2022/04/07 02:10:06;;;;;;;3.30;1.50;;;8.60;99.90;;;;;;5058369;28;20429;-43
2022/04/07 02:12:35;;;;;;;2.03;1.43;;;8.60;99.90;;;;;;5056523;28;20433;-44
2022/04/07 02:15:01;;;;;;;1.50;1.40;;;8.60;99.90;;;;;;5056709;28;20518;-44
2022/04/07 02:17:26;;;;;;;1.87;1.70;;;8.50;99.90;;;;;;5056450;28;20965;-44
2022/04/07 02:19:54;;;;;;;1.90;1.60;;;8.50;99.90;;;;;;5057437;28;20213;-43
2022/04/07 02:22:19;;;;;;;1.50;1.37;;;8.50;99.90;;;;;;5057123;28;20567;-44
2022/04/07 02:24:47;;;;;;;2.10;1.60;;;8.50;99.90;;;;;;5056848;28;20456;-43
2022/04/07 02:27:14;;;;;;;3.30;1.60;;;8.50;99.90;;;;;;5057390;28;20174;-44
2022/04/07 02:29:40;;;;;;;1.50;1.27;;;8.40;99.90;;;;;;5055139;28;20516;-46
2022/04/07 02:32:07;;;;;;;1.67;1.20;;;8.50;99.90;;;;;;5057670;28;20484;-44
2022/04/07 02:34:33;;;;;;;1.70;1.30;;;8.50;99.90;;;;;;5056946;28;20417;-44
2022/04/07 02:36:58;;;;;;;4.33;1.20;;;8.50;99.90;;;;;;5055228;28;20492;-44
2022/04/07 02:39:24;;;;;;;1.30;1.10;;;8.50;99.90;;;;;;5054013;28;20994;-44
2022/04/07 02:41:49;;;;;;;2.03;0.97;;;8.60;99.90;;;;;;5053641;28;20182;-44
2022/04/07 02:44:17;;;;;;;2.17;1.33;;;8.60;99.90;;;;;;5054424;28;20174;-44
2022/04/07 02:46:43;;;;;;;1.30;1.20;;;8.60;99.90;;;;;;5054960;28;20573;-44
2022/04/07 02:49:09;;;;;;;2.33;1.30;;;8.60;99.90;;;;;;5054672;28;20865;-44
2022/04/07 02:51:34;;;;;;;1.70;1.10;;;8.60;99.90;;;;;;5055048;28;20512;-44
2022/04/07 02:54:00;;;;;;;1.30;1.00;;;8.60;99.90;;;;;;5056689;28;20189;-43
2022/04/07 02:56:26;;;;;;;2.23;1.37;;;8.50;99.90;;;;;;5057275;28;20420;-44
2022/04/07 02:58:52;;;;;;;1.70;1.60;;;8.50;99.90;;;;;;5056326;28;20202;-44
2022/04/07 03:01:18;;;;;;;1.30;1.10;;;8.50;99.90;;;;;;5054644;28;20873;-44
2022/04/07 03:03:44;;;;;;;1.43;1.23;;;8.50;99.90;;;;;;5055709;28;20257;-44
2022/04/07 03:06:09;;;;;;;1.60;0.90;;;8.50;99.90;;;;;;5055145;28;20803;-44
2022/04/07 03:08:35;;;;;;;1.70;1.20;;;8.50;99.90;;;;;;5055576;28;20578;-44
2022/04/07 03:11:01;;;;;;;1.17;1.00;;;8.50;99.90;;;;;;5054933;28;20193;-44
2022/04/07 03:13:27;;;;;;;2.10;1.00;;;8.50;99.90;;;;;;5053243;28;20517;-44
2022/04/07 03:15:53;;;;;;;1.70;1.13;;;8.50;99.90;;;;;;5055599;28;20420;-44
2022/04/07 03:18:19;;;;;;;1.50;1.20;;;8.40;99.90;;;;;;5055745;28;20906;-42
2022/04/07 03:20:44;;;;;;;3.00;1.43;;;8.40;99.90;;;;;;5054721;28;20185;-44
2022/04/07 03:23:10;;;;;;;2.00;1.33;;;8.40;99.90;;;;;;5055749;28;20183;-45
2022/04/07 03:25:36;;;;;;;3.50;1.60;;;8.40;99.90;;;;;;5054707;28;20253;-44
2022/04/07 03:28:03;;;;;;;2.30;1.20;;;8.40;99.90;;;;;;5056151;28;20458;-44
2022/04/07 03:30:29;;;;;;;1.13;1.00;;;8.50;99.90;;;;;;5055768;28;20740;-44
2022/04/07 03:32:54;;;;;;;1.30;1.20;;;8.50;99.90;;;;;;5054585;28;20831;-45
2022/04/07 03:35:20;;;;;;;1.63;1.20;;;8.40;99.90;;;;;;5054150;28;20217;-45
2022/04/07 03:37:46;;;;;;;1.83;1.00;;;8.50;99.90;;;;;;5055277;28;20214;-44
2022/04/07 03:40:12;;;;;;;3.43;1.43;;;8.50;99.80;;;;;;5055127;28;20269;-44
2022/04/07 03:42:38;;;;;;;2.37;1.30;;;8.60;99.80;;;;;;5055179;28;20174;-44
2022/04/07 03:45:04;;;;;;;3.20;1.27;;;8.50;99.90;;;;;;5056761;28;20421;-45
2022/04/07 03:47:30;;;;;;;2.50;1.70;;;8.50;99.90;;;;;;5056457;28;20764;-45
2022/04/07 03:49:56;;;;;;;1.43;1.03;;;8.50;99.90;;;;;;5055742;28;20786;-44
2022/04/07 03:52:22;;;;;;;2.13;1.27;;;8.50;99.90;;;;;;5054017;28;20514;-44
2022/04/07 03:54:47;;;;;;;2.30;1.20;;;8.50;99.90;;;;;;5052682;28;20178;-45
2022/04/07 03:57:13;;;;;;;2.30;1.30;;;8.40;99.90;;;;;;5050577;28;20182;-44
2022/04/07 03:59:41;;;;;;;3.07;1.30;;;8.50;99.90;;;;;;5052347;28;20409;-44
2022/04/07 04:02:07;;;;;;;4.20;1.30;;;8.40;99.90;;;;;;5050475;28;20223;-44
2022/04/07 04:04:33;;;;;;;2.77;1.70;;;8.40;99.90;;;;;;5051082;28;20428;-46
2022/04/07 04:06:59;;;;;;;3.87;1.57;;;8.50;99.90;;;;;;5050710;28;20432;-42
2022/04/07 04:09:25;;;;;;;1.67;1.40;;;8.50;99.90;;;;;;5052034;28;20547;-42
2022/04/07 04:11:52;;;;;;;1.73;1.37;;;8.50;99.90;;;;;;5052149;28;20420;-43
2022/04/07 04:14:18;;;;;;;1.70;1.20;;;8.60;99.90;;;;;;5052124;28;20194;-45
2022/04/07 04:16:44;;;;;;;2.13;1.67;;;8.60;99.90;;;;;;5052637;28;20507;-42
2022/04/07 04:19:10;;;;;;;1.77;1.27;;;8.60;99.80;;;;;;5054543;28;20202;-43
2022/04/07 04:21:36;;;;;;;2.47;1.10;;;8.60;99.80;;;;;;5051900;28;20513;-43
2022/04/07 04:24:02;;;;;;;2.47;1.50;;;8.50;99.70;;;;;;5052429;28;20417;-44
2022/04/07 04:26:28;;;;;;;3.30;1.17;;;8.50;99.70;;;;;;5051625;28;20229;-45
2022/04/07 04:28:55;;;;;;;1.70;1.40;;;8.50;99.80;;;;;;5051079;28;20417;-42
2022/04/07 04:31:24;;;;;;;3.77;1.40;;;8.60;99.50;;;;;;5052542;28;20416;-44
2022/04/07 04:33:53;;;;;;;2.43;1.13;;;8.60;99.20;;;;;;5051309;28;20417;-43
2022/04/07 04:36:19;;;;;;;1.50;1.30;;;8.60;99.10;;;;;;5051993;28;20424;-46
2022/04/07 04:38:44;;;;;;;1.00;0.83;;;8.60;99.10;;;;;;5052055;28;20562;-44
2022/04/07 04:41:10;;;;;;;4.33;1.10;;;8.60;99.20;;;;;;5052751;28;20575;-44
2022/04/07 04:43:36;;;;;;;1.10;0.93;;;8.60;98.80;;;;;;5053128;28;20181;-46
2022/04/07 04:46:02;;;;;;;1.80;1.17;;;8.60;99.00;;;;;;5050718;28;20216;-43
2022/04/07 04:48:28;;;;;;;1.63;0.93;;;8.70;98.90;;;;;;5052480;28;20273;-44
2022/04/07 04:50:55;;;;;;;1.30;1.00;;;8.70;98.70;;;;;;5049739;28;20586;-45
2022/04/07 04:53:22;;;;;;;1.73;1.10;;;8.80;98.40;;;;;;5049815;28;20178;-44
2022/04/07 04:55:48;;;;;;;1.20;1.07;;;8.80;98.20;;;;;;5050189;28;20425;-49
2022/04/07 04:58:14;;;;;;;1.40;1.00;;;8.80;98.10;;;;;;5049403;28;20988;-43
2022/04/07 05:00:40;;;;;;;2.70;1.30;;;8.80;98.20;;;;;;5048859;28;20626;-45
2022/04/07 05:03:06;;;;;;;1.50;1.10;;;8.80;98.30;;;;;;5048100;28;20681;-43
2022/04/07 05:05:31;;;;;;;1.23;0.87;;;8.80;98.20;;;;;;5046290;28;20647;-43
2022/04/07 05:07:57;;;;;;;1.10;0.80;;;8.80;98.00;;;;;;5048332;28;20269;-44
2022/04/07 05:10:25;;;;;;;1.73;0.87;;;8.80;98.10;;;;;;5048087;28;20182;-43
2022/04/07 05:12:54;;;;;;;2.40;1.10;;;8.80;98.40;;;;;;5045633;28;20182;-43
2022/04/07 05:15:19;;;;;;;2.23;1.00;;;8.80;98.40;;;;;;5047730;28;20429;-45
2022/04/07 05:17:49;;;;;;;2.07;0.90;;;8.80;98.60;;;;;;5048875;28;20746;-44
2022/04/07 05:20:15;;;;;;;1.73;0.70;;;8.80;98.80;;;;;;5048368;28;20178;-45
2022/04/07 05:22:41;;;;;;;1.47;0.87;;;8.80;99.00;;;;;;5044484;28;20727;-44
2022/04/07 05:25:08;;;;;;;1.80;0.97;;;8.80;98.80;;;;;;5039936;28;20472;-44
2022/04/07 05:27:36;;;;;;;1.00;0.77;;;8.80;98.90;;;;;;5042347;28;20432;-44
2022/04/07 05:30:03;;;;;;;1.27;0.80;;;8.80;98.90;;;;;;5042103;28;20482;-43
2022/04/07 05:32:29;;;;;;;1.50;1.10;;;8.90;98.70;;;;;;5040831;28;20632;-45
2022/04/07 05:34:55;;;;;;;1.00;0.70;;;8.80;98.80;;;;;;5042002;28;20431;-43
2022/04/07 05:37:21;;;;;;;1.07;0.77;;;8.80;98.60;;;;;;5045907;28;20471;-44
2022/04/07 05:39:47;;;;;;;2.07;0.90;;;8.90;98.40;;;;;;5047649;28;20568;-44
2022/04/07 05:42:13;;;;;;;1.63;0.83;;;8.90;98.70;;;;;;5043153;28;20413;-44
2022/04/07 05:44:38;;;;;;;1.20;0.87;;;8.90;98.70;;;;;;5042886;28;20346;-43
2022/04/07 05:47:04;;;;;;;1.10;0.70;;;8.90;98.40;;;;;;5045855;28;20190;-43
2022/04/07 05:49:30;;;;;;;0.90;0.60;;;9.00;98.20;;;;;;5037889;28;20213;-42
2022/04/07 05:52:00;;;;;;;1.33;0.80;;;9.10;98.10;;;;;;5033263;28;20840;-44
2022/04/07 05:54:27;;;;;;;1.00;0.60;;;9.20;97.90;;;;;;5026856;28;20201;-45
2022/04/07 05:56:52;;;;;;;2.77;0.57;;;9.30;97.60;;;;;;5027738;28;20445;-44
2022/04/07 05:59:18;;;;;;;1.10;0.63;;;9.30;97.30;;;;;;5028265;28;20500;-42
2022/04/07 06:01:44;;;;;;;0.80;0.50;;;9.40;97.20;;;;;;5030488;28;20179;-43
2022/04/07 06:04:09;;;;;;;0.90;0.57;;;9.50;97.00;;;;;;5029107;28;20171;-43
2022/04/07 06:06:35;;;;;;;1.70;0.67;;;9.50;97.00;;;;;;5027924;28;20174;-43
2022/04/07 06:09:02;;;;;;;0.70;0.40;;;9.60;96.70;;;;;;5028334;28;20429;-43
2022/04/07 06:11:28;;;;;;;1.27;0.60;;;9.60;96.60;;;;;;5031222;28;20270;-43
2022/04/07 06:13:54;;;;;;;1.97;0.40;;;9.70;96.00;;;;;;5031661;28;20528;-44
2022/04/07 06:16:20;;;;;;;1.30;0.60;;;9.70;96.10;;;;;;5033020;28;20347;-42
2022/04/07 06:18:46;;;;;;;2.23;0.73;;;9.70;95.90;;;;;;5031519;28;20461;-44
2022/04/07 06:21:11;;;;;;;1.47;0.63;;;9.80;95.60;;;;;;5049050;28;20182;-43
2022/04/07 06:23:37;;;;;;;0.93;0.50;;;9.80;95.60;;;;;;5048418;28;20450;-42
2022/04/07 06:26:03;;;;;;;3.87;0.70;;;9.90;95.20;;;;;;5048984;28;20332;-43
2022/04/07 06:28:28;;;;;;;1.07;0.57;;;9.80;94.90;;;;;;5050211;28;20193;-43
2022/04/07 06:30:54;;;;;;;1.07;0.57;;;9.80;94.90;;;;;;5047455;28;20248;-43
2022/04/07 06:33:21;;;;;;;1.00;0.53;;;9.80;94.90;;;;;;5050124;28;20261;-44
2022/04/07 06:35:48;;;;;;;1.03;0.50;;;9.80;95.20;;;;;;5048855;28;20700;-45
2022/04/07 06:38:14;;;;;;;0.90;0.50;;;9.70;95.10;;;;;;5049403;28;21123;-46
2022/04/07 06:40:39;;;;;;;0.80;0.60;;;9.70;95.20;;;;;;5048682;28;20432;-43
2022/04/07 06:43:05;;;;;;;1.07;0.50;;;9.70;95.20;;;;;;5051724;28;20212;-44
2022/04/07 06:45:31;;;;;;;0.93;0.60;;;9.70;95.30;;;;;;5050869;28;20604;-43
2022/04/07 06:47:57;;;;;;;1.37;0.60;;;9.70;95.30;;;;;;5051921;28;20232;-42
2022/04/07 06:50:26;;;;;;;1.97;0.63;;;9.70;95.30;;;;;;5051616;28;20210;-43
2022/04/07 06:52:52;;;;;;;1.00;0.67;;;9.70;95.30;;;;;;5052139;28;20423;-45
2022/04/07 06:55:18;;;;;;;1.53;0.60;;;9.70;95.20;;;;;;5050608;28;20428;-43
2022/04/07 06:58:01;;;;;;;1.40;0.50;;;9.70;95.30;;;;;;5052186;28;20468;-44
2022/04/07 07:00:32;;;;;;;1.40;0.43;;;9.70;95.30;;;;;;5051676;28;20417;-43
2022/04/07 07:02:59;;;;;;;2.40;0.57;;;9.70;95.20;;;;;;5052504;28;20433;-44
2022/04/07 07:05:27;;;;;;;1.53;0.40;;;9.80;94.90;;;;;;5051583;28;20417;-44
2022/04/07 07:07:53;;;;;;;0.80;0.40;;;9.80;94.90;;;;;;5051652;28;20525;-46
2022/04/07 07:10:23;;;;;;;1.10;0.60;;;9.80;95.10;;;;;;5049777;28;20908;-45
2022/04/07 07:12:52;;;;;;;1.43;0.30;;;9.80;95.20;;;;;;5050981;28;20369;-46
2022/04/07 07:15:21;;;;;;;0.87;0.63;;;9.90;95.20;;;;;;5050459;28;20503;-44
2022/04/07 07:17:46;;;;;;;1.80;0.50;;;10.10;94.30;;;;;;5053195;28;20471;-43
2022/04/07 07:20:12;;;;;;;2.60;0.63;;;10.30;94.00;;;;;;5061733;28;20498;-44
2022/04/07 07:22:39;;;;;;;1.43;0.60;;;10.40;93.90;;;;;;5064215;28;20432;-44
2022/04/07 07:25:06;;;;;;;1.37;0.70;;;10.40;93.50;;;;;;5063124;28;20307;-43
2022/04/07 07:27:41;;;;;;;0.87;0.40;;;10.40;93.40;;;;;;5064005;28;21146;-45
2022/04/07 07:30:09;;;;;;;1.37;0.57;;;10.60;93.50;;;;;;5063640;28;20420;-45
2022/04/07 07:32:38;;;;;;;4.90;0.70;;;10.60;92.90;;;;;;5067456;28;20428;-44
2022/04/07 07:35:05;;;;;;;1.20;0.70;;;10.60;93.30;;;;;;5068102;28;20478;-45
2022/04/07 07:37:31;;;;;;;1.87;0.60;;;10.60;93.40;;;;;;5066802;28;20601;-45
2022/04/07 07:39:56;;;;;;;1.20;0.50;;;10.80;93.10;;;;;;5066737;28;21235;-44
2022/04/07 07:42:22;;;;;;;1.33;0.60;;;10.80;92.80;;;;;;5065176;28;20415;-44
2022/04/07 07:44:48;;;;;;;1.20;0.63;;;10.80;92.90;;;;;;5068423;28;20478;-43
2022/04/07 07:47:14;;;;;;;1.90;0.80;;;10.80;93.00;;;;;;5066295;28;20549;-44
2022/04/07 07:49:39;;;;;;;0.80;0.40;;;10.90;93.10;;;;;;5062110;28;21614;-46
2022/04/07 07:52:05;;;;;;;0.87;0.40;;;10.80;93.00;;;;;;5065034;28;20874;-43
2022/04/07 07:54:31;;;;;;;1.10;0.77;;;10.80;92.70;;;;;;5066380;28;20197;-45
2022/04/07 07:56:56;;;;;;;3.50;0.80;;;10.70;92.90;;;;;;5065447;28;20181;-45
2022/04/07 07:59:23;;;;;;;1.20;0.60;;;10.70;92.60;;;;;;5061438;28;20223;-44
2022/04/07 08:01:49;;;;;;;1.87;0.90;;;10.70;93.00;;;;;;5060589;28;20201;-44
2022/04/07 08:04:15;;;;;;;1.43;0.63;;;10.60;92.80;;;;;;5059431;28;20746;-47
2022/04/07 08:06:41;;;;;;;1.10;0.70;;;10.70;93.00;;;;;;5060647;28;20599;-44
2022/04/07 08:09:09;;;;;;;1.30;0.77;;;10.80;93.00;;;;;;5060992;28;20445;-45
2022/04/07 08:11:35;;;;;;;1.80;0.67;;;11.00;92.50;;;;;;5058659;28;20453;-44
2022/04/07 08:14:01;;;;;;;1.10;0.57;;;11.20;92.20;;;;;;5044442;28;20441;-45
2022/04/07 08:16:29;;;;;;;0.90;0.50;;;11.50;91.80;;;;;;5062298;28;20192;-43
2022/04/07 08:18:55;;;;;;;2.13;0.53;;;11.80;91.50;;;;;;5061906;28;20209;-46
2022/04/07 08:21:20;;;;;;;1.77;0.77;;;11.80;91.00;;;;;;5060867;28;20939;-45
2022/04/07 08:23:46;;;;;;;1.23;0.60;;;11.90;90.60;;;;;;5063205;28;20645;-44
2022/04/07 08:26:11;;;;;;;1.53;0.60;;;11.80;90.60;;;;;;5061603;28;20885;-44
2022/04/07 08:28:37;;;;;;;0.90;0.47;;;11.90;90.50;;;;;;5051358;28;20197;-44
2022/04/07 08:31:03;;;;;;;1.00;0.80;;;11.80;90.30;;;;;;5059578;28;20673;-45
2022/04/07 08:33:28;;;;;;;2.10;0.53;;;11.70;90.40;;;;;;5054126;28;20193;-43
2022/04/07 08:35:54;;;;;;;1.67;0.53;;;11.70;90.60;;;;;;5050983;28;20259;-45
2022/04/07 08:38:20;;;;;;;1.97;0.60;;;11.60;90.90;;;;;;5062805;28;20240;-46
2022/04/07 08:40:51;;;;;;;2.60;0.70;;;11.80;91.30;;;;;;5063282;28;20734;-48
2022/04/07 08:43:19;;;;;;;1.27;0.60;;;12.10;90.30;;;;;;5061860;28;20628;-44
2022/04/07 08:45:45;;;;;;;2.67;0.50;;;12.10;90.00;;;;;;5052628;28;20436;-44
2022/04/07 08:48:12;;;;;;;0.90;0.50;;;12.20;89.90;;;;;;5038373;28;20890;-42
2022/04/07 08:50:41;;;;;;;1.30;0.60;;;12.60;89.10;;;;;;5046057;28;20427;-42
2022/04/07 08:53:08;;;;;;;0.70;0.30;;;13.30;88.10;;;;;;5059624;28;20894;-43
2022/04/07 08:55:34;;;;;;;1.03;0.50;;;14.10;83.40;;;;;;5061835;28;20785;-44
2022/04/07 08:58:03;;;;;;;4.07;0.60;;;14.30;82.20;;;;;;5062964;28;20476;-46
2022/04/07 09:00:29;;;;;;;0.80;0.40;;;13.90;80.70;;;;;;5062475;28;20646;-44
2022/04/07 09:02:55;;;;;;;1.30;0.50;;;13.60;81.70;;;;;;5063915;28;20490;-44
2022/04/07 09:05:24;;;;;;;1.43;0.40;;;13.00;82.70;;;;;;5061767;28;20197;-42
2022/04/07 09:07:54;;;;;;;2.87;0.67;;;12.60;84.60;;;;;;5064812;28;20424;-45
2022/04/07 09:10:22;;;;;;;0.80;0.40;;;12.40;85.50;;;;;;5064978;28;20436;-46
2022/04/07 09:12:48;;;;;;;1.73;0.50;;;12.30;85.80;;;;;;5064521;28;20705;-44
2022/04/07 09:15:14;;;;;;;0.90;0.50;;;12.30;86.70;;;;;;5061934;28;20431;-43
2022/04/07 09:17:50;;;;;;;0.97;0.60;;;12.20;86.80;;;;;;5064940;28;20853;-45
2022/04/07 09:20:16;;;;;;;1.03;0.47;;;12.30;86.40;;;;;;5060943;28;20427;-43
2022/04/07 09:22:41;;;;;;;1.20;0.50;;;12.20;86.10;;;;;;5063958;28;20473;-45
2022/04/07 09:25:08;;;;;;;4.53;0.50;;;12.10;86.40;;;;;;5061275;28;20241;-43
2022/04/07 09:27:34;;;;;;;1.00;0.60;;;12.00;86.30;;;;;;5062057;28;20189;-43
2022/04/07 09:30:00;;;;;;;1.50;0.60;;;11.90;86.40;;;;;;5061757;28;20872;-43
2022/04/07 09:32:26;;;;;;;1.20;0.60;;;11.80;87.20;;;;;;5064386;28;20881;-46
2022/04/07 09:34:53;;;;;;;0.80;0.50;;;11.80;87.50;;;;;;5066420;28;20428;-44
2022/04/07 09:37:20;;;;;;;1.43;0.60;;;11.70;88.60;;;;;;5067980;28;20660;-44
2022/04/07 09:39:46;;;;;;;1.07;0.60;;;11.70;89.60;;;;;;5067590;28;20498;-45
2022/04/07 09:42:22;;;;;;;3.83;0.50;;;11.80;90.00;;;;;;5065516;28;20420;-42
2022/04/07 09:44:59;;;;;;;1.40;0.60;;;11.80;90.10;;;;;;5066406;28;20189;-44
2022/04/07 09:47:51;;;;;;;1.00;0.60;;;11.80;90.20;;;;;;5067435;28;20435;-44
2022/04/07 09:50:29;;;;;;;1.40;0.70;;;11.80;90.00;;;;;;5053369;28;20900;-42
2022/04/07 09:52:55;;;;;;;1.63;0.60;;;11.80;90.30;;;;;;5064835;28;20994;-47
2022/04/07 09:55:31;;;;;;;1.47;0.60;;;11.70;90.90;;;;;;5066669;28;20485;-46
2022/04/07 09:58:00;;;;;;;1.47;0.60;;;11.90;90.60;;;;;;5066186;28;20508;-44
2022/04/07 10:00:26;;;;;;;1.33;0.40;;;11.90;90.30;;;;;;5063786;28;20471;-45
2022/04/07 10:02:53;;;;;;;0.87;0.40;;;12.00;90.30;;;;;;5063833;28;21741;-47
2022/04/07 10:05:21;;;;;;;0.90;0.50;;;12.00;89.20;;;;;;5058363;28;21004;-45
2022/04/07 10:07:48;;;;;;;1.80;0.50;;;12.00;89.10;;;;;;5053165;28;20444;-45
2022/04/07 10:10:14;;;;;;;0.97;0.40;;;12.00;89.20;;;;;;5062820;28;20662;-43
2022/04/07 10:12:40;;;;;;;0.80;0.37;;;12.10;88.60;;;;;;5062391;28;20450;-44
2022/04/07 10:15:06;;;;;;;0.80;0.40;;;12.00;88.10;;;;;;5063070;28;20699;-45
2022/04/07 10:17:34;;;;;;;0.97;0.37;;;12.20;88.40;;;;;;5064836;28;20462;-45
2022/04/07 10:20:11;;;;;;;7.80;1.20;;;12.20;87.70;;;;;;5062969;28;21792;-47
2022/04/07 10:23:18;;;;;;;1.33;0.40;;;12.00;88.20;;;;;;5064157;28;20507;-44
2022/04/07 10:25:48;;;;;;;0.90;0.40;;;11.90;88.60;;;;;;5063390;28;20482;-43
2022/04/07 10:28:14;;;;;;;0.90;0.50;;;11.90;89.30;;;;;;5062140;28;20442;-44
2022/04/07 10:30:51;;;;;;;0.80;0.50;;;11.80;89.60;;;;;;5066360;28;20827;-46
2022/04/07 10:33:41;;;;;;;0.90;0.40;;;12.00;89.90;;;;;;5064920;28;20416;-44
2022/04/07 10:36:09;;;;;;;0.80;0.30;;;12.20;90.10;;;;;;5064962;28;21118;-44
2022/04/07 10:38:40;;;;;;;1.20;0.60;;;12.10;89.80;;;;;;5065461;28;20777;-46
2022/04/07 10:41:06;;;;;;;1.50;0.40;;;12.20;89.70;;;;;;5064774;28;20449;-45
2022/04/07 10:43:31;;;;;;;0.80;0.40;;;12.20;89.80;;;;;;5064947;28;20420;-43
2022/04/07 10:46:05;;;;;;;2.03;0.50;;;12.30;89.70;;;;;;5063599;28;20462;-44
2022/04/07 10:48:32;;;;;;;0.70;0.40;;;12.20;89.30;;;;;;5063711;28;20217;-43
2022/04/07 10:51:10;;;;;;;1.00;0.50;;;12.20;89.40;;;;;;5062883;28;20435;-43
2022/04/07 10:53:41;;;;;;;1.00;0.40;;;12.10;89.70;;;;;;5065024;28;20490;-43
2022/04/07 10:56:08;;;;;;;1.03;0.40;;;12.40;90.00;;;;;;5063558;28;20431;-45
2022/04/07 10:58:48;;;;;;;0.80;0.27;;;12.60;89.00;;;;;;5065085;28;20468;-45
2022/04/07 11:01:36;;;;;;;0.80;0.30;;;12.70;88.00;;;;;;5065785;28;20415;-44
2022/04/07 11:04:20;;;;;;;0.70;0.30;;;12.50;88.30;;;;;;5064212;28;20424;-46
2022/04/07 11:07:13;;;;;;;0.80;0.40;;;12.50;88.90;;;;;;5060981;28;20737;-46
2022/04/07 11:09:45;;;;;;;0.90;0.30;;;12.60;88.10;;;;;;5055604;28;20423;-45
2022/04/07 11:12:15;;;;;;;1.53;0.50;;;12.60;87.70;;;;;;5062264;28;20727;-45
2022/04/07 11:14:46;;;;;;;0.77;0.30;;;12.60;87.50;;;;;;5061580;28;20485;-43
2022/04/07 11:17:26;;;;;;;0.80;0.33;;;12.70;87.00;;;;;;5046345;28;20497;-44
2022/04/07 11:20:03;;;;;;;1.00;0.53;;;12.80;87.30;;;;;;5066331;28;20506;-45
2022/04/07 11:22:50;;;;;;;0.87;0.40;;;13.40;85.90;;;;;;5062487;28;20430;-45
2022/04/07 11:25:20;;;;;;;0.80;0.33;;;13.80;84.50;;;;;;5062539;28;20554;-44
2022/04/07 11:27:47;;;;;;;1.87;0.70;;;13.80;84.10;;;;;;5061488;28;20469;-44
2022/04/07 11:30:13;;;;;;;2.90;1.43;;;14.20;83.40;;;;;;5061936;28;20430;-46
2022/04/07 11:33:17;;;;;;;1.00;0.50;;;13.90;82.60;;;;;;5064185;28;20463;-44
2022/04/07 11:35:43;;;;;;;1.30;0.60;;;13.70;83.80;;;;;;5061849;28;20447;-44
2022/04/07 11:38:09;;;;;;;0.80;0.40;;;13.60;84.80;;;;;;5060935;28;20807;-45
2022/04/07 11:40:35;;;;;;;1.37;0.37;;;13.40;84.90;;;;;;5059416;28;20424;-45
2022/04/07 11:43:02;;;;;;;3.27;0.60;;;13.40;86.00;;;;;;5058538;28;20447;-47
2022/04/07 11:45:31;;;;;;;1.10;0.60;;;13.30;86.00;;;;;;5052100;28;20185;-45
2022/04/07 11:47:57;;;;;;;1.83;0.50;;;13.30;87.00;;;;;;5061318;28;20514;-45
2022/04/07 11:50:23;;;;;;;1.60;0.43;;;13.00;87.70;;;;;;5064303;28;20470;-45
2022/04/07 11:52:49;;;;;;;1.00;0.60;;;12.90;88.80;;;;;;5066025;28;20483;-46
2022/04/07 11:55:17;;;;;;;1.00;0.50;;;12.70;89.20;;;;;;5062573;28;20190;-45
2022/04/07 11:57:42;;;;;;;1.43;0.40;;;12.50;89.60;;;;;;5060939;28;20424;-44
2022/04/07 12:00:10;;;;;;;1.00;0.40;;;12.50;89.90;;;;;;5061509;28;20432;-45
2022/04/07 12:02:35;;;;;;;1.37;0.30;;;12.60;89.30;;;;;;5063000;28;20266;-46
2022/04/07 12:05:04;;;;;;;1.10;0.50;;;12.40;89.40;;;;;;5059102;28;20473;-45
2022/04/07 12:07:30;;;;;;;0.80;0.40;;;12.40;90.00;;;;;;5059698;28;20268;-46
2022/04/07 12:10:04;;;;;;;1.40;0.30;;;12.20;90.10;;;;;;5052284;28;20715;-44
2022/04/07 12:12:30;;;;;;;0.90;0.30;;;12.20;90.30;;;;;;5054636;28;20436;-47
2022/04/07 12:14:55;;;;;;;0.70;0.33;;;12.10;90.90;;;;;;5060860;28;20427;-46
2022/04/07 12:17:22;;;;;;;1.20;0.77;;;12.00;91.50;;;;;;5061215;28;20190;-45
2022/04/07 12:19:48;;;;;;;1.30;0.40;;;12.00;91.80;;;;;;5061299;28;20245;-44
2022/04/07 12:22:15;;;;;;;0.90;0.40;;;11.90;92.00;;;;;;5059928;28;20853;-43
2022/04/07 12:25:04;;;;;;;2.27;0.47;;;11.90;92.00;;;;;;5062961;28;20831;-45
2022/04/07 12:27:31;;;;;;;1.60;0.50;;;11.80;92.00;;;;;;5063795;28;20618;-47
2022/04/07 12:29:59;;;;;;;0.83;0.30;;;11.80;92.30;;;;;;5063154;28;20778;-44
2022/04/07 12:32:26;;;;;;;0.90;0.40;;;11.70;92.30;;;;;;5063288;28;20712;-44
2022/04/07 12:34:54;;;;;;;1.10;0.40;;;11.70;92.60;;;;;;5062944;28;20482;-44
2022/04/07 12:37:30;;;;;;;1.47;0.40;;;11.60;92.40;;;;;;5044719;28;20711;-46
2022/04/07 12:39:56;;;;;;;1.10;0.50;;;11.60;92.80;;;;;;5062969;28;20529;-44
2022/04/07 12:42:22;;;;;;;0.87;0.40;;;11.60;92.70;;;;;;5060460;28;20532;-44
2022/04/07 12:44:49;;;;;;;2.20;0.40;;;11.70;92.60;;;;;;5061427;28;20588;-44
2022/04/07 12:47:25;;;;;;;1.20;0.50;;;11.80;92.70;;;;;;5061057;28;20189;-45
2022/04/07 12:49:58;;;;;;;1.03;0.50;;;11.70;92.50;;;;;;5060023;28;20431;-44
2022/04/07 12:52:37;;;;;;;1.90;0.50;;;11.60;92.90;;;;;;5059828;28;20738;-45
2022/04/07 12:55:12;;;;;;;1.27;0.30;;;11.60;93.30;;;;;;5061913;28;20954;-45
2022/04/07 12:57:42;;;;;;;0.70;0.30;;;11.60;93.60;;;;;;5059412;28;20806;-45
2022/04/07 13:00:12;;;;;;;0.83;0.40;;;11.50;93.60;;;;;;5062938;28;20423;-46